createdAt,value
2017-08-15T00:00:40.889Z,19.20
2017-08-15T00:03:07.676Z,19.20
2017-08-15T00:05:33.724Z,19.10
2017-08-15T00:08:00.485Z,19.20
2017-08-15T00:10:26.526Z,19.10
2017-08-15T00:12:52.561Z,19.10
2017-08-15T00:15:19.325Z,19.10
2017-08-15T00:17:45.341Z,19.10
2017-08-15T00:20:11.399Z,19.10
2017-08-15T00:22:38.164Z,19.10
2017-08-15T00:25:04.221Z,19.00
2017-08-15T00:27:30.237Z,19.00
2017-08-15T00:29:56.276Z,19.00
2017-08-15T00:32:22.346Z,19.00
2017-08-15T00:34:48.394Z,19.00
2017-08-15T00:37:14.441Z,19.00
2017-08-15T00:39:40.493Z,18.90
2017-08-15T00:42:07.268Z,18.90
2017-08-15T00:44:33.306Z,18.90
2017-08-15T00:46:59.358Z,18.90
2017-08-15T00:49:25.378Z,18.90
2017-08-15T00:51:51.430Z,18.90
2017-08-15T00:54:17.457Z,18.80
2017-08-15T00:56:43.514Z,18.80
2017-08-15T00:59:09.577Z,18.80
2017-08-15T01:01:36.341Z,18.80
2017-08-15T01:04:02.393Z,18.80
2017-08-15T01:06:28.424Z,18.80
2017-08-15T01:08:55.205Z,18.80
2017-08-15T01:11:21.226Z,18.70
2017-08-15T01:13:47.249Z,18.80
2017-08-15T01:16:13.305Z,18.80
2017-08-15T01:18:39.344Z,18.70
2017-08-15T01:21:05.369Z,18.70
2017-08-15T01:23:31.393Z,18.70
2017-08-15T01:25:57.413Z,18.70
2017-08-15T01:28:24.177Z,18.70
2017-08-15T01:30:50.198Z,18.70
2017-08-15T01:33:16.219Z,18.70
2017-08-15T01:35:42.237Z,18.70
2017-08-15T01:38:08.249Z,18.70
2017-08-15T01:40:34.281Z,18.70
2017-08-15T01:43:01.034Z,18.70
2017-08-15T01:45:27.045Z,18.70
2017-08-15T01:47:53.061Z,18.80
2017-08-15T01:50:19.089Z,18.80
2017-08-15T01:52:45.120Z,18.80
2017-08-15T01:55:11.140Z,18.80
2017-08-15T01:57:37.929Z,18.70
2017-08-15T02:00:03.980Z,18.70
2017-08-15T02:02:30.761Z,18.70
2017-08-15T02:04:56.813Z,18.70
2017-08-15T02:07:23.586Z,18.70
2017-08-15T02:09:49.620Z,18.70
2017-08-15T02:12:15.661Z,18.70
2017-08-15T02:14:42.425Z,18.70
2017-08-15T02:17:08.436Z,18.70
2017-08-15T02:19:34.469Z,18.70
2017-08-15T02:22:00.494Z,18.70
2017-08-15T02:24:26.522Z,18.80
2017-08-15T02:26:53.277Z,18.80
2017-08-15T02:29:19.303Z,18.70
2017-08-15T02:31:45.313Z,18.70
2017-08-15T02:34:11.370Z,18.70
2017-08-15T02:36:38.122Z,18.70
2017-08-15T02:39:04.562Z,18.70
2017-08-15T02:41:30.570Z,18.60
2017-08-15T02:43:56.581Z,18.70
2017-08-15T02:46:22.600Z,18.60
2017-08-15T02:48:48.627Z,18.60
2017-08-15T02:51:15.409Z,18.70
2017-08-15T02:53:41.441Z,18.60
2017-08-15T02:56:07.481Z,18.60
2017-08-15T02:58:34.269Z,18.60
2017-08-15T03:01:00.294Z,18.60
2017-08-15T03:03:26.312Z,18.60
2017-08-15T03:05:52.365Z,18.70
2017-08-15T03:08:18.409Z,18.70
2017-08-15T03:10:44.482Z,18.70
2017-08-15T03:13:10.527Z,18.70
2017-08-15T03:15:36.574Z,18.70
2017-08-15T03:18:02.616Z,18.70
2017-08-15T03:20:28.641Z,18.70
2017-08-15T03:22:54.680Z,18.70
2017-08-15T03:25:21.469Z,18.60
2017-08-15T03:27:47.513Z,18.60
2017-08-15T03:30:14.321Z,18.60
2017-08-15T03:32:40.355Z,18.60
2017-08-15T03:35:07.150Z,18.60
2017-08-15T03:37:33.226Z,18.50
2017-08-15T03:39:59.313Z,18.60
2017-08-15T03:42:26.084Z,18.40
2017-08-15T03:44:52.126Z,18.40
2017-08-15T03:47:18.149Z,18.40
2017-08-15T03:49:44.173Z,18.40
2017-08-15T03:52:10.944Z,18.30
2017-08-15T03:54:36.977Z,18.20
2017-08-15T03:57:03.045Z,18.30
2017-08-15T03:59:29.082Z,18.30
2017-08-15T04:01:55.100Z,18.20
2017-08-15T04:04:21.141Z,18.20
2017-08-15T04:06:47.927Z,18.10
2017-08-15T04:09:13.953Z,18.10
2017-08-15T04:11:40.002Z,18.10
2017-08-15T04:14:06.061Z,18.10
2017-08-15T04:16:32.113Z,18.10
2017-08-15T04:18:58.873Z,18.10
2017-08-15T04:21:24.934Z,18.00
2017-08-15T04:23:50.977Z,18.10
2017-08-15T04:26:17.238Z,18.10
2017-08-15T04:28:43.292Z,18.10
2017-08-15T04:31:09.362Z,18.20
2017-08-15T04:36:32.313Z,18.20
2017-08-15T04:38:59.069Z,18.20
2017-08-15T04:41:25.112Z,18.20
2017-08-15T04:43:51.143Z,18.20
2017-08-15T04:46:17.925Z,18.20
2017-08-15T04:48:43.934Z,18.20
2017-08-15T04:51:09.988Z,18.30
2017-08-15T04:53:36.008Z,18.30
2017-08-15T04:56:02.030Z,18.40
2017-08-15T04:58:28.809Z,18.40
2017-08-15T05:00:54.844Z,18.40
2017-08-15T05:03:20.870Z,18.40
2017-08-15T05:05:46.905Z,18.50
2017-08-15T05:08:13.073Z,18.50
2017-08-15T05:10:39.098Z,18.50
2017-08-15T05:13:05.121Z,18.60
2017-08-15T05:15:31.132Z,18.60
2017-08-15T05:17:57.187Z,18.60
2017-08-15T05:20:23.225Z,18.50
2017-08-15T05:22:49.243Z,18.50
2017-08-15T05:25:15.253Z,18.50
2017-08-15T05:27:41.260Z,18.50
2017-08-15T05:30:07.284Z,18.40
2017-08-15T05:32:33.330Z,18.40
2017-08-15T05:34:59.349Z,18.40
2017-08-15T05:37:25.356Z,18.30
2017-08-15T05:39:51.380Z,18.40
2017-08-15T05:42:18.138Z,18.50
2017-08-15T05:44:44.152Z,18.50
2017-08-15T05:47:10.157Z,18.50
2017-08-15T05:49:36.205Z,18.50
2017-08-15T05:52:02.229Z,18.50
2017-08-15T05:54:28.286Z,18.50
2017-08-15T05:56:54.341Z,18.60
2017-08-15T05:59:20.381Z,18.70
2017-08-15T06:01:47.156Z,18.80
2017-08-15T06:04:13.196Z,18.80
2017-08-15T06:06:39.261Z,18.90
2017-08-15T06:09:05.292Z,18.90
2017-08-15T06:11:31.333Z,19.00
2017-08-15T06:13:58.105Z,19.10
2017-08-15T06:16:24.129Z,19.10
2017-08-15T06:18:50.136Z,19.20
2017-08-15T06:21:16.156Z,19.20
2017-08-15T06:23:42.210Z,19.20
2017-08-15T06:26:08.254Z,19.10
2017-08-15T06:28:34.288Z,19.10
2017-08-15T06:31:00.308Z,19.00
2017-08-15T06:33:26.324Z,18.90
2017-08-15T06:35:53.076Z,18.90
2017-08-15T06:38:19.097Z,18.90
2017-08-15T06:40:45.108Z,18.90
2017-08-15T06:43:11.148Z,19.00
2017-08-15T06:45:37.164Z,19.00
2017-08-15T06:48:03.193Z,18.90
2017-08-15T06:50:29.326Z,18.70
2017-08-15T06:52:55.372Z,18.70
2017-08-15T06:55:21.418Z,18.80
2017-08-15T06:57:47.497Z,19.00
2017-08-15T07:00:13.541Z,19.10
2017-08-15T07:02:40.313Z,19.20
2017-08-15T07:05:06.349Z,19.20
2017-08-15T07:07:32.393Z,19.30
2017-08-15T07:09:59.153Z,19.50
2017-08-15T07:12:25.171Z,19.50
2017-08-15T07:14:51.213Z,19.50
2017-08-15T07:17:17.219Z,19.60
2017-08-15T07:19:43.241Z,19.70
2017-08-15T07:22:09.996Z,20.00
2017-08-15T07:24:36.056Z,19.90
2017-08-15T07:27:02.082Z,20.00
2017-08-15T07:29:28.100Z,20.10
2017-08-15T07:31:54.130Z,20.20
2017-08-15T07:34:20.168Z,20.20
2017-08-15T07:36:46.193Z,20.30
2017-08-15T07:39:12.215Z,20.40
2017-08-15T07:41:38.254Z,20.60
2017-08-15T07:44:04.278Z,20.60
2017-08-15T07:46:30.302Z,20.60
2017-08-15T07:48:56.328Z,20.70
2017-08-15T07:51:22.368Z,20.90
2017-08-15T07:53:49.150Z,21.10
2017-08-15T07:56:15.214Z,21.10
2017-08-15T07:58:41.969Z,21.10
2017-08-15T08:01:08.005Z,21.00
2017-08-15T08:03:34.031Z,21.10
2017-08-15T08:06:00.085Z,21.00
2017-08-15T08:08:26.120Z,21.10
2017-08-15T08:10:52.137Z,21.10
2017-08-15T08:13:18.177Z,21.10
2017-08-15T08:15:44.188Z,21.20
2017-08-15T08:18:10.971Z,21.60
2017-08-15T08:20:36.985Z,21.60
2017-08-15T08:23:03.016Z,21.70
2017-08-15T08:25:29.030Z,21.90
2017-08-15T08:27:55.053Z,22.10
2017-08-15T08:30:21.830Z,22.30
2017-08-15T08:32:47.876Z,22.30
2017-08-15T08:35:13.896Z,22.40
2017-08-15T08:37:40.683Z,22.50
2017-08-15T08:40:06.692Z,22.50
2017-08-15T08:42:32.731Z,22.50
2017-08-15T08:44:58.761Z,22.60
2017-08-15T08:47:25.516Z,22.80
2017-08-15T08:49:51.539Z,22.80
2017-08-15T08:52:17.583Z,22.80
2017-08-15T08:54:43.644Z,22.90
2017-08-15T08:57:09.750Z,23.10
2017-08-15T08:59:35.796Z,23.20
2017-08-15T09:02:01.849Z,23.20
2017-08-15T09:04:27.873Z,23.30
2017-08-15T09:06:53.890Z,23.40
2017-08-15T09:09:19.925Z,23.50
2017-08-15T09:11:45.956Z,23.70
2017-08-15T09:14:11.997Z,23.80
2017-08-15T09:16:38.045Z,23.90
2017-08-15T09:19:04.088Z,24.10
2017-08-15T09:21:30.857Z,24.50
2017-08-15T09:23:56.881Z,24.50
2017-08-15T09:26:22.908Z,24.70
2017-08-15T09:29:02.908Z,25.40
2017-08-15T09:31:28.966Z,25.30
2017-08-15T09:33:54.995Z,25.80
2017-08-15T09:36:21.793Z,26.80
2017-08-15T09:38:47.821Z,26.70
2017-08-15T09:41:14.597Z,28.30
2017-08-15T09:43:40.620Z,28.20
2017-08-15T09:46:06.643Z,28.90
2017-08-15T09:48:32.677Z,29.20
2017-08-15T09:50:58.693Z,29.80
2017-08-15T09:53:24.721Z,30.20
2017-08-15T09:55:50.736Z,30.60
2017-08-15T09:58:22.885Z,30.60
2017-08-15T10:00:48.908Z,30.60
2017-08-15T10:03:14.933Z,30.60
2017-08-15T10:05:40.936Z,30.50
2017-08-15T10:08:06.977Z,30.50
2017-08-15T10:10:33.761Z,31.30
2017-08-15T10:12:59.776Z,31.30
2017-08-15T10:15:25.799Z,31.70
2017-08-15T10:17:51.828Z,32.20
2017-08-15T10:20:17.840Z,32.30
2017-08-15T10:22:44.605Z,31.10
2017-08-15T10:25:10.620Z,31.10
2017-08-15T10:27:36.640Z,31.00
2017-08-15T10:30:02.677Z,31.30
2017-08-15T10:32:28.688Z,31.40
2017-08-15T10:34:54.696Z,31.50
2017-08-15T10:37:21.469Z,32.10
2017-08-15T10:39:47.501Z,32.10
2017-08-15T10:42:13.532Z,32.90
2017-08-15T10:44:39.561Z,33.60
2017-08-15T10:47:05.625Z,34.10
2017-08-15T10:49:31.660Z,34.00
2017-08-15T10:51:57.685Z,33.80
2017-08-15T10:54:24.448Z,34.10
2017-08-15T10:56:50.472Z,34.00
2017-08-15T10:59:17.289Z,34.10
2017-08-15T11:01:43.328Z,34.90
2017-08-15T11:04:09.335Z,34.80
2017-08-15T11:06:35.353Z,34.50
2017-08-15T11:09:01.373Z,34.30
2017-08-15T11:11:27.419Z,34.00
2017-08-15T11:13:53.431Z,33.70
2017-08-15T11:16:19.472Z,33.20
2017-08-15T11:18:45.484Z,32.80
2017-08-15T11:21:11.512Z,33.20
2017-08-15T11:23:37.516Z,33.00
2017-08-15T11:26:03.553Z,32.70
2017-08-15T11:28:29.580Z,31.90
2017-08-15T11:30:55.605Z,31.40
2017-08-15T11:33:21.649Z,30.60
2017-08-15T11:35:48.412Z,30.00
2017-08-15T11:38:14.457Z,30.00
2017-08-15T11:40:40.468Z,30.00
2017-08-15T11:43:06.605Z,30.10
2017-08-15T11:45:32.650Z,30.40
2017-08-15T11:47:58.926Z,30.90
2017-08-15T11:50:25.002Z,31.20
2017-08-15T11:52:51.056Z,31.50
2017-08-15T11:55:17.813Z,32.20
2017-08-15T11:57:43.902Z,32.20
2017-08-15T12:00:09.932Z,32.40
2017-08-15T12:02:35.972Z,32.50
2017-08-15T12:05:02.001Z,32.60
2017-08-15T12:07:28.029Z,32.70
2017-08-15T12:09:54.807Z,32.70
2017-08-15T12:12:20.822Z,32.70
2017-08-15T12:14:46.852Z,33.20
2017-08-15T12:17:12.865Z,33.50
2017-08-15T12:19:38.892Z,33.60
2017-08-15T12:22:04.951Z,34.10
2017-08-15T12:24:30.985Z,34.30
2017-08-15T12:26:57.019Z,34.40
2017-08-15T12:29:23.043Z,34.30
2017-08-15T12:31:49.084Z,34.00
2017-08-15T12:34:15.088Z,34.20
2017-08-15T12:36:41.108Z,34.00
2017-08-15T12:39:07.161Z,33.10
2017-08-15T12:41:33.947Z,32.80
2017-08-15T12:43:59.977Z,32.70
2017-08-15T12:46:26.006Z,32.70
2017-08-15T12:48:52.013Z,32.40
2017-08-15T12:51:18.245Z,32.00
2017-08-15T12:53:44.276Z,31.90
2017-08-15T12:56:10.297Z,31.70
2017-08-15T12:58:36.337Z,31.90
2017-08-15T13:01:03.113Z,32.10
2017-08-15T13:03:29.134Z,32.10
2017-08-15T13:05:55.141Z,32.00
2017-08-15T13:08:21.184Z,32.00
2017-08-15T13:10:47.937Z,31.40
2017-08-15T13:13:13.953Z,31.30
2017-08-15T13:15:39.992Z,31.50
2017-08-15T13:18:06.037Z,31.60
2017-08-15T13:20:32.081Z,31.90
2017-08-15T13:22:58.132Z,32.00
2017-08-15T13:25:24.180Z,31.90
2017-08-15T13:27:50.948Z,31.50
2017-08-15T13:30:16.960Z,31.50
2017-08-15T13:32:43.004Z,31.50
2017-08-15T13:35:09.781Z,31.10
2017-08-15T13:37:35.816Z,31.10
2017-08-15T13:40:01.855Z,30.60
2017-08-15T13:42:27.864Z,30.30
2017-08-15T13:44:54.634Z,30.20
2017-08-15T13:47:20.659Z,30.20
2017-08-15T13:49:46.680Z,30.00
2017-08-15T13:52:12.717Z,29.50
2017-08-15T13:54:39.475Z,29.20
2017-08-15T13:57:05.493Z,29.20
2017-08-15T13:59:31.548Z,29.10
2017-08-15T14:01:57.569Z,29.10
2017-08-15T14:04:24.328Z,30.00
2017-08-15T14:06:50.360Z,30.00
2017-08-15T14:09:16.381Z,30.90
2017-08-15T14:11:42.442Z,31.80
2017-08-15T14:14:08.476Z,32.10
2017-08-15T14:16:34.518Z,31.90
2017-08-15T14:19:00.548Z,31.10
2017-08-15T14:21:26.633Z,30.30
2017-08-15T14:23:52.657Z,30.10
2017-08-15T14:26:18.692Z,30.20
2017-08-15T14:28:44.716Z,29.80
2017-08-15T14:31:10.749Z,29.30
2017-08-15T14:33:36.794Z,29.10
2017-08-15T14:36:03.581Z,28.70
2017-08-15T14:38:29.636Z,28.70
2017-08-15T14:40:55.655Z,28.70
2017-08-15T14:43:21.698Z,28.60
2017-08-15T14:45:47.724Z,28.50
2017-08-15T14:48:13.749Z,28.50
2017-08-15T14:50:46.689Z,28.50
2017-08-15T14:53:12.722Z,28.50
2017-08-15T14:55:38.773Z,28.40
2017-08-15T14:58:04.801Z,28.40
2017-08-15T15:00:30.865Z,28.20
2017-08-15T15:02:57.645Z,28.00
2017-08-15T15:05:23.700Z,28.00
2017-08-15T15:07:49.741Z,28.00
2017-08-15T15:10:15.789Z,28.00
2017-08-15T15:12:41.822Z,27.80
2017-08-15T15:15:07.855Z,27.80
2017-08-15T15:17:33.900Z,27.70
2017-08-15T15:19:59.936Z,27.80
2017-08-15T15:22:25.984Z,27.90
2017-08-15T15:24:52.745Z,28.10
2017-08-15T15:27:18.800Z,28.00
2017-08-15T15:29:45.574Z,28.20
2017-08-15T15:32:11.613Z,28.20
2017-08-15T15:34:37.636Z,28.80
2017-08-15T15:37:03.833Z,29.40
2017-08-15T15:39:30.612Z,29.70
2017-08-15T15:41:56.646Z,29.70
2017-08-15T15:44:22.696Z,29.50
2017-08-15T15:46:48.745Z,29.30
2017-08-15T15:49:14.769Z,29.00
2017-08-15T15:51:40.834Z,29.30
2017-08-15T15:54:07.584Z,29.60
2017-08-15T15:56:33.636Z,29.60
2017-08-15T15:58:59.667Z,29.40
2017-08-15T16:01:26.457Z,29.40
2017-08-15T16:03:52.497Z,29.30
2017-08-15T16:06:19.288Z,30.40
2017-08-15T16:08:45.312Z,30.40
2017-08-15T16:11:11.336Z,31.10
2017-08-15T16:13:37.369Z,31.30
2017-08-15T16:16:03.389Z,31.40
2017-08-15T16:18:29.445Z,31.50
2017-08-15T16:20:55.465Z,32.10
2017-08-15T16:23:21.588Z,32.70
2017-08-15T16:25:47.633Z,33.10
2017-08-15T16:28:13.668Z,33.10
2017-08-15T16:30:39.712Z,32.60
2017-08-15T16:33:05.754Z,31.50
2017-08-15T16:35:31.820Z,30.70
2017-08-15T16:37:57.836Z,30.20
2017-08-15T16:40:23.860Z,29.80
2017-08-15T16:42:49.874Z,29.40
2017-08-15T16:45:15.926Z,29.10
2017-08-15T16:47:41.976Z,28.80
2017-08-15T16:50:08.000Z,28.70
2017-08-15T16:52:34.044Z,28.40
2017-08-15T16:55:00.077Z,28.30
2017-08-15T16:57:26.111Z,28.10
2017-08-15T16:59:52.128Z,28.00
2017-08-15T17:02:18.177Z,27.90
2017-08-15T17:04:44.209Z,27.60
2017-08-15T17:07:10.236Z,27.40
2017-08-15T17:09:36.277Z,27.30
2017-08-15T17:12:02.293Z,27.20
2017-08-15T17:14:28.317Z,27.20
2017-08-15T17:16:54.316Z,27.10
2017-08-15T17:19:20.325Z,27.00
2017-08-15T17:21:46.368Z,26.90
2017-08-15T17:24:12.423Z,26.80
2017-08-15T17:26:38.441Z,26.70
2017-08-15T17:29:04.496Z,26.70
2017-08-15T17:31:30.529Z,26.70
2017-08-15T17:33:56.597Z,26.70
2017-08-15T17:36:22.616Z,26.60
2017-08-15T17:38:48.651Z,26.60
2017-08-15T17:41:14.675Z,26.60
2017-08-15T17:43:40.708Z,26.50
2017-08-15T17:46:06.753Z,26.40
2017-08-15T17:48:32.773Z,26.20
2017-08-15T17:50:58.780Z,25.60
2017-08-15T17:53:24.796Z,25.20
2017-08-15T17:55:50.824Z,24.00
2017-08-15T17:58:17.584Z,22.00
2017-08-15T18:00:43.608Z,21.90
2017-08-15T18:03:09.657Z,20.50
2017-08-15T18:05:36.420Z,19.30
2017-08-15T18:08:02.444Z,19.30
2017-08-15T18:10:28.449Z,19.10
2017-08-15T18:12:54.491Z,18.90
2017-08-15T18:15:20.513Z,18.80
2017-08-15T18:17:46.549Z,18.70
2017-08-15T18:20:12.559Z,18.60
2017-08-15T18:22:38.596Z,18.60
2017-08-15T18:25:04.640Z,18.60
2017-08-15T18:27:30.676Z,18.70
2017-08-15T18:29:56.705Z,18.60
2017-08-15T18:32:22.733Z,18.70
2017-08-15T18:34:48.758Z,18.70
2017-08-15T18:37:14.776Z,18.70
2017-08-15T18:39:40.792Z,18.70
2017-08-15T18:42:06.840Z,18.60
2017-08-15T18:44:32.871Z,18.60
2017-08-15T18:46:58.881Z,18.60
2017-08-15T18:49:24.904Z,18.60
2017-08-15T18:51:50.932Z,18.60
2017-08-15T18:54:16.968Z,18.60
2017-08-15T18:56:43.725Z,18.80
2017-08-15T18:59:09.746Z,18.80
2017-08-15T19:01:35.776Z,18.90
2017-08-15T19:04:01.793Z,19.00
2017-08-15T19:06:27.821Z,19.00
2017-08-15T19:08:54.577Z,19.00
2017-08-15T19:11:20.619Z,18.90
2017-08-15T19:13:46.645Z,18.90
2017-08-15T19:16:12.669Z,18.80
2017-08-15T19:18:39.416Z,18.80
2017-08-15T19:21:05.461Z,18.70
2017-08-15T19:23:31.484Z,18.80
2017-08-15T19:25:57.507Z,18.80
2017-08-15T19:28:23.540Z,18.80
2017-08-15T19:30:50.297Z,18.80
2017-08-15T19:33:16.313Z,18.80
2017-08-15T19:35:42.326Z,18.90
2017-08-15T19:38:08.345Z,19.00
2017-08-15T19:40:34.357Z,19.00
2017-08-15T19:43:00.376Z,19.10
2017-08-15T19:45:26.388Z,19.10
2017-08-15T19:47:52.404Z,19.10
2017-08-15T19:50:18.420Z,19.20
2017-08-15T19:52:45.185Z,19.30
2017-08-15T19:55:11.192Z,19.30
2017-08-15T19:57:37.233Z,19.30
2017-08-15T20:00:03.240Z,19.20
2017-08-15T20:02:29.281Z,19.20
2017-08-15T20:04:55.306Z,19.20
2017-08-15T20:07:21.320Z,19.30
2017-08-15T20:09:47.362Z,19.20
2017-08-15T20:12:13.381Z,19.20
2017-08-15T20:14:39.417Z,19.20
2017-08-15T20:17:06.179Z,19.00
2017-08-15T20:19:32.196Z,19.00
2017-08-15T20:21:58.221Z,19.00
2017-08-15T20:24:24.237Z,18.90
2017-08-15T20:26:50.245Z,18.90
2017-08-15T20:29:16.266Z,18.90
2017-08-15T20:31:42.281Z,18.80
2017-08-15T20:34:08.318Z,18.80
2017-08-15T20:36:34.353Z,18.80
2017-08-15T20:39:00.410Z,18.80
2017-08-15T20:41:26.430Z,18.80
2017-08-15T20:43:53.190Z,19.00
2017-08-15T20:46:19.200Z,18.90
2017-08-15T20:48:45.205Z,19.00
2017-08-15T20:51:11.249Z,19.10
2017-08-15T20:53:37.281Z,19.10
2017-08-15T20:56:04.060Z,19.10
2017-08-15T20:58:30.065Z,19.10
2017-08-15T21:00:56.085Z,19.20
2017-08-15T21:03:29.090Z,19.10
2017-08-15T21:05:55.128Z,19.20
2017-08-15T21:08:21.141Z,19.20
2017-08-15T21:10:47.152Z,19.20
2017-08-15T21:13:13.164Z,19.10
2017-08-15T21:15:39.173Z,19.00
2017-08-15T21:18:05.188Z,19.00
2017-08-15T21:20:31.206Z,19.00
2017-08-15T21:22:57.231Z,19.00
2017-08-15T21:25:23.273Z,19.00
2017-08-15T21:27:49.281Z,19.00
2017-08-15T21:30:16.042Z,18.90
2017-08-15T21:32:42.061Z,18.90
2017-08-15T21:35:08.074Z,18.90
2017-08-15T21:37:34.096Z,18.80
2017-08-15T21:40:00.123Z,18.80
2017-08-15T21:42:26.164Z,18.70
2017-08-15T21:44:52.182Z,18.60
2017-08-15T21:47:18.205Z,18.60
2017-08-15T21:49:44.221Z,18.60
2017-08-15T21:52:10.244Z,18.60
2017-08-15T21:54:36.268Z,18.60
2017-08-15T21:57:02.291Z,18.60
2017-08-15T21:59:29.070Z,18.60
2017-08-15T22:02:01.160Z,18.60
2017-08-15T22:04:27.210Z,18.60
2017-08-15T22:06:53.244Z,18.50
2017-08-15T22:09:19.288Z,18.50
2017-08-15T22:11:45.294Z,18.40
2017-08-15T22:14:11.326Z,18.40
2017-08-15T22:16:37.360Z,18.30
2017-08-15T22:19:03.413Z,18.30
2017-08-15T22:21:29.438Z,18.20
2017-08-15T22:23:56.213Z,18.20
2017-08-15T22:26:22.241Z,18.10
2017-08-15T22:28:48.250Z,18.10
2017-08-15T22:31:14.272Z,18.10
2017-08-15T22:33:40.285Z,18.20
2017-08-15T22:36:06.313Z,18.20
2017-08-15T22:38:33.065Z,18.10
2017-08-15T22:40:59.082Z,18.10
2017-08-15T22:43:25.084Z,18.10
2017-08-15T22:45:51.104Z,18.10
2017-08-15T22:48:17.116Z,18.00
2017-08-15T22:50:43.120Z,17.90
2017-08-15T22:53:09.161Z,17.90
2017-08-15T22:55:35.164Z,17.80
2017-08-15T22:58:01.193Z,17.80
2017-08-15T23:00:27.209Z,17.70
2017-08-15T23:02:53.224Z,17.70
2017-08-15T23:05:19.237Z,17.70
2017-08-15T23:07:45.248Z,17.80
2017-08-15T23:10:11.264Z,17.80
2017-08-15T23:12:37.281Z,17.80
2017-08-15T23:15:03.285Z,17.70
2017-08-15T23:17:29.325Z,17.70
2017-08-15T23:19:55.353Z,17.70
2017-08-15T23:22:21.368Z,17.70
2017-08-15T23:24:47.402Z,17.70
2017-08-15T23:27:13.424Z,17.60
2017-08-15T23:29:39.445Z,17.70
2017-08-15T23:32:05.456Z,17.70
2017-08-15T23:34:31.481Z,17.70
2017-08-15T23:36:57.498Z,17.70
2017-08-15T23:39:23.528Z,17.60
2017-08-15T23:41:49.549Z,17.60
2017-08-15T23:44:15.569Z,17.60
2017-08-15T23:46:41.581Z,17.60
2017-08-15T23:49:07.615Z,17.60
2017-08-15T23:51:33.636Z,17.60
2017-08-15T23:53:59.648Z,17.60
2017-08-15T23:56:25.668Z,17.70
2017-08-15T23:58:51.704Z,17.70
